Hastings, Pennsylvania
Current Conditions -  °F | °C
As of 8:35 PM on Friday 19 Dec 2014 (Local Time) from KIDI Reporting Station
Overcast Overcast  
Wind Chill: 19°   Ceiling: 2600
Heat Index: 28°   Visibility: 10mi
Dew Point: 19°   Wind: 10mph
Humidity: 69%   Direction: 310°NW
Pressure: 30.28"   Gusts: NA
Location:  40.67°N, 78.71°W
Report Text: KIDI 200135Z AUTO 31009KT 10SM OVC026 M02/M07 A3028 RMK A01
Loading
Personal Weather Stations






























Interactive Weather Map New forecast layout! Learn more

10-Day Weather Forecast

Advertisements
Track Severe Weather on mobile